createdAt,value
2019-03-30T00:03:40.616Z,99.90
2019-03-30T00:07:45.629Z,99.90
2019-03-30T00:11:50.625Z,99.90
2019-03-30T00:15:55.620Z,99.90
2019-03-30T00:20:00.627Z,99.90
2019-03-30T00:24:05.638Z,99.90
2019-03-30T00:28:10.642Z,99.90
2019-03-30T00:32:15.654Z,99.90
2019-03-30T00:36:20.670Z,99.90
2019-03-30T00:40:25.669Z,99.90
2019-03-30T00:44:30.673Z,99.90
2019-03-30T00:48:35.653Z,99.90
2019-03-30T00:52:40.645Z,99.90
2019-03-30T00:56:45.641Z,99.90
2019-03-30T01:00:50.751Z,99.90
2019-03-30T01:04:55.751Z,99.90
2019-03-30T01:09:00.730Z,99.90
2019-03-30T01:13:07.721Z,99.90
2019-03-30T01:17:12.729Z,99.90
2019-03-30T01:21:17.898Z,99.90
2019-03-30T01:25:22.907Z,99.90
2019-03-30T01:29:27.902Z,99.90
2019-03-30T01:33:32.898Z,99.90
2019-03-30T01:37:37.910Z,99.90
2019-03-30T01:41:43.983Z,99.90
2019-03-30T01:45:49.071Z,99.90
2019-03-30T01:49:54.077Z,99.90
2019-03-30T01:54:00.048Z,99.90
2019-03-30T01:58:05.038Z,99.90
2019-03-30T02:02:10.137Z,99.90
2019-03-30T02:06:15.127Z,99.90
2019-03-30T02:10:39.868Z,99.90
2019-03-30T02:14:44.847Z,99.90
2019-03-30T02:18:50.089Z,99.90
2019-03-30T02:22:55.094Z,99.90
2019-03-30T02:27:00.237Z,99.90
2019-03-30T02:31:05.401Z,99.90
2019-03-30T02:35:11.464Z,99.90
2019-03-30T02:39:16.481Z,99.90
2019-03-30T02:43:21.486Z,99.90
2019-03-30T02:47:26.499Z,99.90
2019-03-30T02:51:31.540Z,99.90
2019-03-30T02:55:36.568Z,99.90
2019-03-30T02:59:41.555Z,99.90
2019-03-30T03:03:46.579Z,99.90
2019-03-30T03:07:51.584Z,99.90
2019-03-30T03:11:56.592Z,99.90
2019-03-30T03:16:01.607Z,99.90
2019-03-30T03:20:07.567Z,99.90
2019-03-30T03:24:12.580Z,99.90
2019-03-30T03:28:17.596Z,99.90
2019-03-30T03:32:22.610Z,99.90
2019-03-30T03:36:27.619Z,99.90
2019-03-30T03:40:32.654Z,99.90
2019-03-30T03:44:37.766Z,99.90
2019-03-30T03:48:42.781Z,99.90
2019-03-30T03:52:47.970Z,99.90
2019-03-30T03:56:53.724Z,99.90
2019-03-30T04:01:00.440Z,99.90
2019-03-30T04:05:07.763Z,99.90
2019-03-30T04:09:15.662Z,99.90
2019-03-30T04:13:23.071Z,99.90
2019-03-30T04:17:28.066Z,99.90
2019-03-30T04:21:43.561Z,99.90
2019-03-30T04:25:39.694Z,99.90
2019-03-30T04:29:44.690Z,99.90
2019-03-30T04:33:49.689Z,99.90
2019-03-30T04:37:54.694Z,99.90
2019-03-30T04:41:59.708Z,99.90
2019-03-30T04:46:04.691Z,99.90
2019-03-30T04:50:09.695Z,99.90
2019-03-30T04:54:14.690Z,99.90
2019-03-30T04:58:19.695Z,99.90
2019-03-30T05:02:24.697Z,99.90
2019-03-30T05:06:29.871Z,99.90
2019-03-30T05:10:35.069Z,99.90
2019-03-30T05:14:40.097Z,99.90
2019-03-30T05:18:45.114Z,99.90
2019-03-30T05:22:51.486Z,99.90
2019-03-30T05:26:56.490Z,99.90
2019-03-30T05:31:01.574Z,99.90
2019-03-30T05:35:07.219Z,99.90
2019-03-30T05:39:13.292Z,99.90
2019-03-30T05:43:18.309Z,98.70
2019-03-30T05:47:23.773Z,93.50
2019-03-30T05:51:29.065Z,79.80
2019-03-30T05:55:34.348Z,69.40
2019-03-30T05:59:39.642Z,57.10
2019-03-30T06:03:44.950Z,52.50
2019-03-30T06:07:50.334Z,49.00
2019-03-30T06:11:55.618Z,44.00
2019-03-30T06:16:00.899Z,41.70
2019-03-30T06:20:07.801Z,39.90
2019-03-30T06:24:13.078Z,38.60
2019-03-30T06:28:20.501Z,37.70
2019-03-30T06:32:25.783Z,36.50
2019-03-30T06:36:31.093Z,34.90
2019-03-30T06:40:36.566Z,34.00
2019-03-30T06:44:41.937Z,32.60
2019-03-30T06:48:47.293Z,32.40
2019-03-30T06:52:58.026Z,32.40
2019-03-30T06:56:59.679Z,33.20
2019-03-30T07:01:05.321Z,32.70
2019-03-30T07:05:10.846Z,32.30
2019-03-30T07:09:17.686Z,32.90
2019-03-30T07:13:24.114Z,33.30
2019-03-30T07:17:30.426Z,31.30
2019-03-30T07:21:35.677Z,29.50
2019-03-30T07:25:41.033Z,28.10
2019-03-30T07:29:46.330Z,26.60
2019-03-30T07:33:51.635Z,26.50
2019-03-30T07:37:56.911Z,26.20
2019-03-30T07:42:02.188Z,25.70
2019-03-30T07:46:08.710Z,25.20
2019-03-30T07:50:14.335Z,24.40
2019-03-30T07:54:19.682Z,24.30
2019-03-30T07:58:24.965Z,24.60
2019-03-30T08:02:30.501Z,24.10
2019-03-30T08:06:35.762Z,23.60
2019-03-30T08:10:42.107Z,23.10
2019-03-30T08:14:47.395Z,23.60
2019-03-30T08:18:52.739Z,23.20
2019-03-30T08:22:58.011Z,23.00
2019-03-30T08:27:03.422Z,22.70
2019-03-30T08:31:08.733Z,23.00
2019-03-30T08:35:14.099Z,23.10
2019-03-30T08:39:19.378Z,23.20
2019-03-30T08:43:24.652Z,23.80
2019-03-30T08:47:29.963Z,23.50
2019-03-30T08:51:35.242Z,22.40
2019-03-30T08:55:40.538Z,21.90
2019-03-30T08:59:45.833Z,21.90
2019-03-30T09:03:51.082Z,22.10
2019-03-30T09:07:56.366Z,21.00
2019-03-30T09:12:01.729Z,21.60
2019-03-30T09:16:07.038Z,21.30
2019-03-30T09:20:12.607Z,21.10
2019-03-30T09:24:17.989Z,21.60
2019-03-30T09:28:23.258Z,22.20
2019-03-30T09:32:28.539Z,22.50
2019-03-30T09:36:33.956Z,22.90
2019-03-30T09:40:39.415Z,22.60
2019-03-30T09:44:44.689Z,23.50
2019-03-30T09:48:49.954Z,23.20
2019-03-30T09:52:55.242Z,21.50
2019-03-30T09:57:00.520Z,21.40
2019-03-30T10:01:05.813Z,21.70
2019-03-30T10:05:11.338Z,22.50
2019-03-30T10:09:16.618Z,23.00
2019-03-30T10:13:22.360Z,21.70
2019-03-30T10:17:27.638Z,20.90
2019-03-30T10:21:32.930Z,20.10
2019-03-30T10:25:38.226Z,20.70
2019-03-30T10:29:43.514Z,19.60
2019-03-30T10:33:48.833Z,21.60
2019-03-30T10:37:54.114Z,22.90
2019-03-30T10:41:59.399Z,23.90
2019-03-30T10:46:04.683Z,23.80
2019-03-30T10:50:10.407Z,22.60
2019-03-30T10:54:15.670Z,21.60
2019-03-30T10:58:20.951Z,21.40
2019-03-30T11:02:26.232Z,21.70
2019-03-30T11:06:32.594Z,21.90
2019-03-30T11:10:37.880Z,23.20
2019-03-30T11:14:43.129Z,21.00
2019-03-30T11:18:48.418Z,21.50
2019-03-30T11:22:53.699Z,21.80
2019-03-30T11:26:58.978Z,21.50
2019-03-30T11:31:05.577Z,22.20
2019-03-30T11:35:11.070Z,21.90
2019-03-30T11:39:16.714Z,23.10
2019-03-30T11:43:21.999Z,23.40
2019-03-30T11:47:27.286Z,24.30
2019-03-30T11:51:32.571Z,25.40
2019-03-30T11:55:37.854Z,25.80
2019-03-30T11:59:43.197Z,25.60
2019-03-30T12:03:48.477Z,25.60
2019-03-30T12:07:53.751Z,26.20
2019-03-30T12:11:59.043Z,27.80
2019-03-30T12:16:04.341Z,30.30
2019-03-30T12:20:09.847Z,33.00
2019-03-30T12:24:15.157Z,35.10
2019-03-30T12:28:20.436Z,35.70
2019-03-30T12:32:25.786Z,37.00
2019-03-30T12:36:31.079Z,38.40
2019-03-30T12:40:36.352Z,38.70
2019-03-30T12:44:41.648Z,40.10
2019-03-30T12:48:46.979Z,39.60
2019-03-30T12:52:52.457Z,39.60
2019-03-30T12:56:57.892Z,40.40
2019-03-30T13:01:03.167Z,40.70
2019-03-30T13:05:08.445Z,40.80
2019-03-30T13:09:13.818Z,40.30
2019-03-30T13:13:19.114Z,40.80
2019-03-30T13:17:24.406Z,42.10
2019-03-30T13:21:32.358Z,42.00
2019-03-30T13:25:36.698Z,41.90
2019-03-30T13:29:41.991Z,42.10
2019-03-30T13:33:47.270Z,42.40
2019-03-30T13:37:52.645Z,43.30
2019-03-30T13:41:57.930Z,42.60
2019-03-30T13:46:03.234Z,43.60
2019-03-30T13:50:09.102Z,42.70
2019-03-30T13:54:14.461Z,42.00
2019-03-30T13:58:19.818Z,43.00
2019-03-30T14:02:25.828Z,43.20
2019-03-30T14:06:31.199Z,43.00
2019-03-30T14:10:38.956Z,42.40
2019-03-30T14:14:44.809Z,41.50
2019-03-30T14:18:50.231Z,41.90
2019-03-30T14:22:55.984Z,42.10
2019-03-30T14:27:01.549Z,42.00
2019-03-30T14:31:07.047Z,42.30
2019-03-30T14:35:12.427Z,41.30
2019-03-30T14:39:17.966Z,41.70
2019-03-30T14:43:23.588Z,40.60
2019-03-30T14:47:29.169Z,41.50
2019-03-30T14:51:35.253Z,41.30
2019-03-30T14:55:40.711Z,42.70
2019-03-30T14:59:47.496Z,43.30
2019-03-30T15:03:52.870Z,44.30
2019-03-30T15:07:58.691Z,44.60
2019-03-30T15:12:04.399Z,45.00
2019-03-30T15:16:10.119Z,43.90
2019-03-30T15:20:16.016Z,43.70
2019-03-30T15:24:21.598Z,44.80
2019-03-30T15:28:27.030Z,46.00
2019-03-30T15:32:33.277Z,46.10
2019-03-30T15:36:38.612Z,45.90
2019-03-30T15:40:44.082Z,46.20
2019-03-30T15:44:49.535Z,48.50
2019-03-30T15:48:55.411Z,48.80
2019-03-30T15:53:01.193Z,49.60
2019-03-30T15:57:14.325Z,49.50
2019-03-30T16:01:16.072Z,50.20
2019-03-30T16:05:21.778Z,50.50
2019-03-30T16:09:27.605Z,50.00
2019-03-30T16:13:33.490Z,51.50
2019-03-30T16:17:38.915Z,51.90
2019-03-30T16:21:44.203Z,52.70
2019-03-30T16:25:49.595Z,52.90
2019-03-30T16:29:58.338Z,53.20
2019-03-30T16:34:01.940Z,52.00
2019-03-30T16:38:07.294Z,52.00
2019-03-30T16:42:12.577Z,51.90
2019-03-30T16:46:17.875Z,52.50
2019-03-30T16:50:23.167Z,53.50
2019-03-30T16:54:28.492Z,54.10
2019-03-30T16:58:33.790Z,53.30
2019-03-30T17:02:39.091Z,53.70
2019-03-30T17:06:44.409Z,54.20
2019-03-30T17:10:49.765Z,54.70
2019-03-30T17:14:55.089Z,55.60
2019-03-30T17:19:00.779Z,56.00
2019-03-30T17:23:06.441Z,56.90
2019-03-30T17:27:12.830Z,58.10
2019-03-30T17:31:18.150Z,60.00
2019-03-30T17:35:23.449Z,60.40
2019-03-30T17:39:29.492Z,62.40
2019-03-30T17:43:35.060Z,64.70
2019-03-30T17:47:40.506Z,65.50
2019-03-30T17:51:45.973Z,67.60
2019-03-30T17:55:51.354Z,69.00
2019-03-30T17:59:56.710Z,70.70
2019-03-30T18:04:02.160Z,72.60
2019-03-30T18:08:08.110Z,74.50
2019-03-30T18:12:13.650Z,76.60
2019-03-30T18:16:22.206Z,78.70
2019-03-30T18:20:26.746Z,80.00
2019-03-30T18:24:32.454Z,81.00
2019-03-30T18:28:37.804Z,80.30
2019-03-30T18:32:43.441Z,81.80
2019-03-30T18:36:50.978Z,82.60
2019-03-30T18:40:56.267Z,83.80
2019-03-30T18:45:02.177Z,82.90
2019-03-30T18:49:08.670Z,83.40
2019-03-30T18:53:15.721Z,84.40
2019-03-30T18:57:23.093Z,85.70
2019-03-30T19:01:28.378Z,86.60
2019-03-30T19:05:34.812Z,87.50
2019-03-30T19:09:40.102Z,89.30
2019-03-30T19:13:45.390Z,90.00
2019-03-30T19:17:50.666Z,90.20
2019-03-30T19:21:56.025Z,90.70
2019-03-30T19:26:01.438Z,91.10
2019-03-30T19:30:11.022Z,91.20
2019-03-30T19:34:16.373Z,91.60
2019-03-30T19:38:21.653Z,92.00
2019-03-30T19:42:26.938Z,92.50
2019-03-30T19:46:33.282Z,92.90
2019-03-30T19:50:38.575Z,93.00
2019-03-30T19:54:43.897Z,93.80
2019-03-30T19:58:49.210Z,94.40
2019-03-30T20:02:54.501Z,94.40
2019-03-30T20:07:00.037Z,94.40
2019-03-30T20:11:05.658Z,94.40
2019-03-30T20:15:11.949Z,94.50
2019-03-30T20:19:17.425Z,95.70
2019-03-30T20:23:22.710Z,95.80
2019-03-30T20:27:28.058Z,95.70
2019-03-30T20:31:33.346Z,95.90
2019-03-30T20:35:38.617Z,96.10
2019-03-30T20:39:43.961Z,96.00
2019-03-30T20:43:48.960Z,96.80
2019-03-30T20:47:54.601Z,96.80
2019-03-30T20:52:00.023Z,97.30
2019-03-30T20:56:05.643Z,97.60
2019-03-30T21:00:12.116Z,97.90
2019-03-30T21:04:17.686Z,97.50
2019-03-30T21:08:23.522Z,97.20
2019-03-30T21:12:28.988Z,97.40
2019-03-30T21:16:33.984Z,97.20
2019-03-30T21:20:39.943Z,97.10
2019-03-30T21:24:45.235Z,97.10
2019-03-30T21:28:50.566Z,96.90
2019-03-30T21:32:56.065Z,96.70
2019-03-30T21:37:01.266Z,96.90
2019-03-30T21:41:07.077Z,97.20
2019-03-30T21:45:13.128Z,97.40
2019-03-30T21:49:18.336Z,97.80
2019-03-30T21:53:23.486Z,97.90
2019-03-30T21:57:28.754Z,97.90
2019-03-30T22:01:33.936Z,98.30
2019-03-30T22:05:39.458Z,98.60
2019-03-30T22:09:44.898Z,98.70
2019-03-30T22:13:50.003Z,98.60
2019-03-30T22:17:55.726Z,98.50
2019-03-30T22:22:00.729Z,98.60
2019-03-30T22:26:05.784Z,98.70
2019-03-30T22:30:23.922Z,98.70
2019-03-30T22:34:17.730Z,98.40
2019-03-30T22:38:22.721Z,98.30
2019-03-30T22:42:27.738Z,98.10
2019-03-30T22:46:32.738Z,97.70
2019-03-30T22:50:37.737Z,97.80
2019-03-30T22:54:43.711Z,97.70
2019-03-30T22:58:48.790Z,97.90
2019-03-30T23:02:53.794Z,97.90
2019-03-30T23:06:58.765Z,98.00
2019-03-30T23:11:03.830Z,98.10
2019-03-30T23:15:08.965Z,98.40
2019-03-30T23:19:13.972Z,98.20
2019-03-30T23:23:18.971Z,98.00
2019-03-30T23:27:23.965Z,97.90
2019-03-30T23:31:28.957Z,97.90
2019-03-30T23:35:33.951Z,97.90
2019-03-30T23:39:39.722Z,98.10
2019-03-30T23:43:44.651Z,98.30
2019-03-30T23:47:50.742Z,98.40
2019-03-30T23:51:55.749Z,98.70
2019-03-30T23:56:00.737Z,98.60
